createdAt,value
2023-04-08T00:00:15.091Z,98952.72
2023-04-08T00:02:43.453Z,98956.38
2023-04-08T00:05:11.730Z,98953.19
2023-04-08T00:07:40.965Z,98947.03
2023-04-08T00:10:10.219Z,98954.47
2023-04-08T00:12:40.331Z,98954.94
2023-04-08T00:15:11.116Z,98948.06
2023-04-08T00:17:39.017Z,98953.16
2023-04-08T00:20:07.836Z,98953.66
2023-04-08T00:22:37.411Z,98946.28
2023-04-08T00:25:09.656Z,98945.63
2023-04-08T00:27:37.526Z,98944.31
2023-04-08T00:30:06.694Z,98943.16
2023-04-08T00:32:34.675Z,98954.75
2023-04-08T00:35:02.592Z,98952.38
2023-04-08T00:37:31.398Z,98949.59
2023-04-08T00:39:59.508Z,98955.41
2023-04-08T00:42:30.815Z,98959.75
2023-04-08T00:44:59.234Z,98959.72
2023-04-08T00:47:29.467Z,98964.13
2023-04-08T00:49:57.402Z,98963.25
2023-04-08T00:52:25.401Z,98962.91
2023-04-08T00:54:53.906Z,98964.78
2023-04-08T00:57:21.820Z,98964.91
2023-04-08T00:59:51.079Z,98965.66
2023-04-08T01:02:28.249Z,98968.16
2023-04-08T01:05:03.298Z,98968.13
2023-04-08T01:07:34.597Z,98972.34
2023-04-08T01:10:07.047Z,98964.31
2023-04-08T01:12:41.786Z,98966.59
2023-04-08T01:15:13.036Z,98961.13
2023-04-08T01:17:42.964Z,98964.72
2023-04-08T01:20:12.422Z,98963.03
2023-04-08T01:22:51.356Z,98969.59
2023-04-08T01:25:23.060Z,98964.13
2023-04-08T01:27:56.751Z,98971.53
2023-04-08T01:30:26.992Z,98968.13
2023-04-08T01:32:56.672Z,98970.16
2023-04-08T01:35:25.820Z,98966.44
2023-04-08T01:37:55.309Z,98970.38
2023-04-08T01:40:24.272Z,98967.56
2023-04-08T01:42:57.023Z,98963.25
2023-04-08T01:45:26.386Z,98965.50
2023-04-08T01:47:54.866Z,98965.97
2023-04-08T01:50:23.944Z,98961.16
2023-04-08T01:52:53.795Z,98957.41
2023-04-08T01:55:22.307Z,98955.47
2023-04-08T01:57:54.138Z,98961.75
2023-04-08T02:00:25.914Z,98960.44
2023-04-08T02:02:55.819Z,98967.47
2023-04-08T02:05:23.918Z,98964.06
2023-04-08T02:07:52.069Z,98961.84
2023-04-08T02:10:21.138Z,98966.97
2023-04-08T02:12:49.423Z,98971.50
2023-04-08T02:15:18.854Z,98964.28
2023-04-08T02:17:53.270Z,98962.88
2023-04-08T02:20:27.682Z,98963.59
2023-04-08T02:23:02.337Z,98963.25
2023-04-08T02:25:31.861Z,98958.53
2023-04-08T02:28:01.288Z,98957.66
2023-04-08T02:30:32.410Z,98961.16
2023-04-08T02:33:05.249Z,98969.63
2023-04-08T02:35:33.915Z,98972.66
2023-04-08T02:38:01.904Z,98971.91
2023-04-08T02:40:33.304Z,98967.75
2023-04-08T02:43:01.656Z,98972.09
2023-04-08T02:45:32.428Z,98962.88
2023-04-08T02:48:01.639Z,98965.59
2023-04-08T02:50:29.597Z,98968.34
2023-04-08T02:52:57.385Z,98962.75
2023-04-08T02:55:25.430Z,98961.69
2023-04-08T02:57:53.299Z,98960.97
2023-04-08T03:00:21.180Z,98962.06
2023-04-08T03:02:50.721Z,98966.69
2023-04-08T03:05:18.765Z,98962.69
2023-04-08T03:07:46.587Z,98968.34
2023-04-08T03:10:14.458Z,98967.38
2023-04-08T03:12:44.406Z,98972.84
2023-04-08T03:15:12.287Z,98962.09
2023-04-08T03:17:40.223Z,98960.97
2023-04-08T03:20:10.400Z,98963.03
2023-04-08T03:22:38.408Z,98965.38
2023-04-08T03:25:07.108Z,98962.41
2023-04-08T03:27:34.936Z,98970.78
2023-04-08T03:30:02.887Z,98969.34
2023-04-08T03:32:30.865Z,98974.50
2023-04-08T03:34:58.845Z,98977.66
2023-04-08T03:37:28.139Z,98973.78
2023-04-08T03:39:56.654Z,98975.72
2023-04-08T03:42:27.254Z,98975.25
2023-04-08T03:44:55.032Z,98976.88
2023-04-08T03:47:22.968Z,98982.63
2023-04-08T03:49:50.879Z,98978.97
2023-04-08T03:52:19.821Z,98970.59
2023-04-08T03:54:48.917Z,98974.22
2023-04-08T03:57:17.093Z,98975.03
2023-04-08T03:59:44.978Z,98975.56
2023-04-08T04:02:12.860Z,98973.13
2023-04-08T04:04:40.680Z,98973.59
2023-04-08T04:07:08.577Z,98972.75
2023-04-08T04:09:39.473Z,98974.84
2023-04-08T04:12:08.710Z,98972.19
2023-04-08T04:14:36.599Z,98961.53
2023-04-08T04:17:04.559Z,98959.38
2023-04-08T04:19:32.708Z,98966.25
2023-04-08T04:22:00.519Z,98968.13
2023-04-08T04:24:28.305Z,98976.03
2023-04-08T04:26:56.539Z,98977.91
2023-04-08T04:29:28.344Z,98976.16
2023-04-08T04:31:56.283Z,98981.16
2023-04-08T04:34:24.177Z,98978.81
2023-04-08T04:36:52.105Z,98985.78
2023-04-08T04:39:19.874Z,98981.50
2023-04-08T04:41:49.088Z,98984.88
2023-04-08T04:44:17.059Z,98983.75
2023-04-08T04:46:46.206Z,98985.91
2023-04-08T04:49:15.647Z,98991.25
2023-04-08T04:51:44.646Z,98997.84
2023-04-08T04:54:12.450Z,98999.38
2023-04-08T04:56:40.649Z,98998.38
2023-04-08T04:59:08.706Z,99002.78
2023-04-08T05:01:36.652Z,99004.50
2023-04-08T05:04:06.260Z,99008.84
2023-04-08T05:06:34.158Z,99017.25
2023-04-08T05:09:02.108Z,99008.56
2023-04-08T05:11:29.925Z,99008.06
2023-04-08T05:13:57.789Z,99013.31
2023-04-08T05:16:25.952Z,99017.75
2023-04-08T05:18:53.783Z,99011.91
2023-04-08T05:21:23.807Z,99027.00
2023-04-08T05:23:54.275Z,99036.34
2023-04-08T05:26:22.791Z,99033.78
2023-04-08T05:28:51.660Z,99036.53
2023-04-08T05:31:20.136Z,99033.25
2023-04-08T05:33:48.688Z,99035.22
2023-04-08T05:36:17.870Z,99034.28
2023-04-08T05:38:47.460Z,99035.38
2023-04-08T05:41:15.619Z,99036.94
2023-04-08T05:43:43.435Z,99042.88
2023-04-08T05:46:11.733Z,99040.91
2023-04-08T05:48:39.578Z,99045.47
2023-04-08T05:51:07.602Z,99041.72
2023-04-08T05:53:36.999Z,99049.44
2023-04-08T05:56:06.428Z,99055.28
2023-04-08T05:58:34.273Z,99049.44
2023-04-08T06:01:02.200Z,99045.84
2023-04-08T06:03:31.847Z,99051.88
2023-04-08T06:05:59.754Z,99049.44
2023-04-08T06:08:27.724Z,99058.38
2023-04-08T06:10:55.746Z,99065.38
2023-04-08T06:13:25.840Z,99060.69
2023-04-08T06:15:54.894Z,99067.72
2023-04-08T06:18:23.451Z,99073.56
2023-04-08T06:20:52.231Z,99071.53
2023-04-08T06:23:21.894Z,99072.53
2023-04-08T06:25:50.137Z,99070.81
2023-04-08T06:28:18.151Z,99070.56
2023-04-08T06:30:47.528Z,99076.03
2023-04-08T06:33:15.784Z,99077.03
2023-04-08T06:35:43.836Z,99070.34
2023-04-08T06:38:12.515Z,99078.09
2023-04-08T06:40:41.218Z,99084.16
2023-04-08T06:43:14.629Z,99085.78
2023-04-08T06:46:10.880Z,99090.81
2023-04-08T06:49:10.508Z,99096.28
2023-04-08T06:52:01.600Z,99094.28
2023-04-08T06:54:43.903Z,99093.38
2023-04-08T06:57:38.193Z,99102.78
2023-04-08T07:00:17.393Z,99093.34
2023-04-08T07:03:09.744Z,99099.38
2023-04-08T07:05:47.649Z,99104.84
2023-04-08T07:08:30.750Z,99102.97
2023-04-08T07:11:11.027Z,99103.03
2023-04-08T07:13:56.481Z,99103.34
2023-04-08T07:16:33.772Z,99113.25
2023-04-08T07:19:17.207Z,99109.84
2023-04-08T07:21:57.068Z,99098.13
2023-04-08T07:24:32.065Z,99102.56
2023-04-08T07:27:11.994Z,99096.88
2023-04-08T07:29:43.663Z,99097.06
2023-04-08T07:32:18.502Z,99103.25
2023-04-08T07:34:52.639Z,99113.53
2023-04-08T07:37:23.932Z,99119.78
2023-04-08T07:40:07.199Z,99120.09
2023-04-08T07:42:55.240Z,99121.88
2023-04-08T07:45:27.795Z,99114.47
2023-04-08T07:48:04.555Z,99117.41
2023-04-08T07:51:08.283Z,99116.31
2023-04-08T07:53:38.400Z,99123.53
2023-04-08T07:56:14.248Z,99118.38
2023-04-08T07:58:53.944Z,99119.19
2023-04-08T08:01:52.369Z,99127.22
2023-04-08T08:04:58.329Z,99127.28
2023-04-08T08:07:49.153Z,99134.84
2023-04-08T08:10:21.702Z,99134.38
2023-04-08T08:12:51.410Z,99132.44
2023-04-08T08:15:20.128Z,99134.22
2023-04-08T08:17:50.923Z,99129.28
2023-04-08T08:20:29.700Z,99135.56
2023-04-08T08:22:59.541Z,99134.81
2023-04-08T08:25:27.606Z,99135.88
2023-04-08T08:27:55.528Z,99137.03
2023-04-08T08:30:23.670Z,99140.91
2023-04-08T08:32:52.296Z,99135.00
2023-04-08T08:35:21.362Z,99138.38
2023-04-08T08:37:54.232Z,99140.84
2023-04-08T08:40:43.432Z,99143.94
2023-04-08T08:43:11.364Z,99140.34
2023-04-08T08:45:40.916Z,99155.34
2023-04-08T08:48:10.345Z,99139.22
2023-04-08T08:50:39.232Z,99139.56
2023-04-08T08:53:10.250Z,99145.16
2023-04-08T08:56:05.816Z,99149.09
2023-04-08T08:58:29.518Z,99144.09
2023-04-08T09:00:57.525Z,99142.31
2023-04-08T09:03:28.010Z,99167.28
2023-04-08T09:05:59.133Z,99158.53
2023-04-08T09:08:28.821Z,99162.94
2023-04-08T09:10:57.670Z,99165.72
2023-04-08T09:13:27.133Z,99165.31
2023-04-08T09:16:10.240Z,99165.41
2023-04-08T09:18:39.738Z,99152.59
2023-04-08T09:21:09.202Z,99159.63
2023-04-08T09:23:42.417Z,99155.34
2023-04-08T09:26:14.431Z,99148.56
2023-04-08T09:28:59.621Z,99154.00
2023-04-08T09:31:32.086Z,99159.13
2023-04-08T09:34:02.296Z,99153.22
2023-04-08T09:36:30.528Z,99153.53
2023-04-08T09:38:58.939Z,99155.84
2023-04-08T09:41:30.340Z,99159.22
2023-04-08T09:44:01.273Z,99154.75
2023-04-08T09:46:34.958Z,99154.00
2023-04-08T09:49:07.675Z,99155.59
2023-04-08T09:51:42.370Z,99159.31
2023-04-08T09:54:15.880Z,99149.69
2023-04-08T09:56:50.587Z,99163.22
2023-04-08T09:59:21.780Z,99147.44
2023-04-08T10:01:55.511Z,99147.22
2023-04-08T10:04:27.722Z,99161.22
2023-04-08T10:06:59.313Z,99158.84
2023-04-08T10:09:28.584Z,99155.34
2023-04-08T10:11:57.384Z,99150.84
2023-04-08T10:14:28.828Z,99163.91
2023-04-08T10:17:36.976Z,99155.84
2023-04-08T10:20:05.452Z,99160.34
2023-04-08T10:22:49.769Z,99151.69
2023-04-08T10:25:34.446Z,99151.63
2023-04-08T10:28:23.908Z,99157.66
2023-04-08T10:30:53.169Z,99151.69
2023-04-08T10:33:26.253Z,99162.84
2023-04-08T10:35:56.174Z,99161.06
2023-04-08T10:38:24.566Z,99155.78
2023-04-08T10:40:54.111Z,99157.00
2023-04-08T10:43:25.473Z,99162.94
2023-04-08T10:45:55.504Z,99165.31
2023-04-08T10:48:29.990Z,99157.81
2023-04-08T10:50:59.975Z,99160.22
2023-04-08T10:53:29.573Z,99150.56
2023-04-08T10:56:07.270Z,99162.34
2023-04-08T10:58:36.795Z,99164.44
2023-04-08T11:01:07.990Z,99167.84
2023-04-08T11:03:38.030Z,99171.03
2023-04-08T11:06:07.662Z,99170.81
2023-04-08T11:08:38.370Z,99172.13
2023-04-08T11:11:11.446Z,99163.69
2023-04-08T11:13:51.602Z,99165.72
2023-04-08T11:16:23.130Z,99172.69
2023-04-08T11:18:55.597Z,99173.28
2023-04-08T11:21:25.638Z,99168.09
2023-04-08T11:23:54.320Z,99154.63
2023-04-08T11:26:26.136Z,99162.84
2023-04-08T11:28:56.094Z,99158.97
2023-04-08T11:31:25.773Z,99159.59
2023-04-08T11:34:09.143Z,99153.56
2023-04-08T11:37:02.445Z,99156.72
2023-04-08T11:39:47.488Z,99154.47
2023-04-08T11:42:29.796Z,99157.25
2023-04-08T11:45:16.958Z,99158.09
2023-04-08T11:47:51.809Z,99158.53
2023-04-08T11:50:30.226Z,99154.22
2023-04-08T11:53:00.614Z,99158.97
2023-04-08T11:55:31.653Z,99152.41
2023-04-08T11:58:16.537Z,99149.66
2023-04-08T12:00:52.491Z,99158.50
2023-04-08T12:03:34.692Z,99156.69
2023-04-08T12:06:10.666Z,99158.06
2023-04-08T12:08:55.625Z,99162.00
2023-04-08T12:11:35.139Z,99165.28
2023-04-08T12:14:03.326Z,99159.13
2023-04-08T12:16:31.279Z,99156.84
2023-04-08T12:19:00.421Z,99159.16
2023-04-08T12:21:29.643Z,99155.97
2023-04-08T12:23:57.513Z,99162.75
2023-04-08T12:26:27.045Z,99164.06
2023-04-08T12:28:54.955Z,99170.63
2023-04-08T12:31:23.222Z,99170.94
2023-04-08T12:33:52.439Z,99175.09
2023-04-08T12:36:20.424Z,99175.28
2023-04-08T12:38:49.920Z,99165.94
2023-04-08T12:41:18.041Z,99157.00
2023-04-08T12:43:45.889Z,99165.94
2023-04-08T12:46:13.936Z,99160.38
2023-04-08T12:48:42.459Z,99159.28
2023-04-08T12:51:10.606Z,99159.78
2023-04-08T12:53:38.829Z,99162.63
2023-04-08T12:56:08.649Z,99158.25
2023-04-08T12:58:36.762Z,99167.22
2023-04-08T13:01:06.511Z,99157.56
2023-04-08T13:03:44.979Z,99159.03
2023-04-08T13:06:17.110Z,99155.34
2023-04-08T13:08:45.548Z,99157.03
2023-04-08T13:11:15.842Z,99162.16
2023-04-08T13:13:47.607Z,99161.91
2023-04-08T13:16:16.168Z,99160.66
2023-04-08T13:18:46.162Z,99162.47
2023-04-08T13:21:16.532Z,99162.50
2023-04-08T13:23:48.193Z,99160.00
2023-04-08T13:26:20.976Z,99161.56
2023-04-08T13:28:57.152Z,99165.44
2023-04-08T13:31:26.935Z,99152.97
2023-04-08T13:33:58.163Z,99148.00
2023-04-08T13:36:28.773Z,99144.50
2023-04-08T13:38:58.127Z,99153.88
2023-04-08T13:41:28.492Z,99154.56
2023-04-08T13:43:58.605Z,99157.69
2023-04-08T13:46:28.022Z,99156.75
2023-04-08T13:49:03.553Z,99155.22
2023-04-08T13:51:33.322Z,99148.59
2023-04-08T13:54:01.857Z,99150.34
2023-04-08T13:56:31.337Z,99142.22
2023-04-08T13:58:59.617Z,99147.19
2023-04-08T14:01:28.198Z,99149.53
2023-04-08T14:03:56.438Z,99151.63
2023-04-08T14:06:24.302Z,99147.59
2023-04-08T14:08:52.360Z,99147.16
2023-04-08T14:11:24.573Z,99142.44
2023-04-08T14:13:55.339Z,99142.72
2023-04-08T14:16:24.054Z,99150.59
2023-04-08T14:18:53.059Z,99149.59
2023-04-08T14:21:22.368Z,99152.06
2023-04-08T14:23:51.730Z,99153.19
2023-04-08T14:26:21.383Z,99150.50
2023-04-08T14:28:50.185Z,99147.31
2023-04-08T14:31:19.933Z,99148.16
2023-04-08T14:33:47.878Z,99151.66
2023-04-08T14:36:16.018Z,99149.56
2023-04-08T14:38:44.103Z,99153.09
2023-04-08T14:41:11.990Z,99158.19
2023-04-08T14:43:39.997Z,99161.47
2023-04-08T14:46:08.056Z,99160.50
2023-04-08T14:48:37.257Z,99165.94
2023-04-08T14:51:06.016Z,99154.69
2023-04-08T14:53:34.019Z,99164.81
2023-04-08T14:56:02.005Z,99165.06
2023-04-08T14:58:29.843Z,99167.72
2023-04-08T15:00:57.985Z,99166.88
2023-04-08T15:03:26.036Z,99176.19
2023-04-08T15:05:58.853Z,99168.75
2023-04-08T15:08:26.964Z,99171.81
2023-04-08T15:10:55.007Z,99173.31
2023-04-08T15:13:23.007Z,99172.88
2023-04-08T15:15:51.680Z,99178.69
2023-04-08T15:18:19.719Z,99183.72
2023-04-08T15:20:47.587Z,99190.31
2023-04-08T15:23:18.310Z,99188.00
2023-04-08T15:25:51.512Z,99194.28
2023-04-08T15:28:29.225Z,99186.28
2023-04-08T15:31:18.630Z,99193.91
2023-04-08T15:33:50.791Z,99193.03
2023-04-08T15:36:32.394Z,99193.03
2023-04-08T15:39:15.496Z,99191.13
2023-04-08T15:42:02.720Z,99186.16
2023-04-08T15:44:49.251Z,99188.59
2023-04-08T15:47:36.823Z,99189.56
2023-04-08T15:50:16.745Z,99191.75
2023-04-08T15:52:56.817Z,99194.50
2023-04-08T15:55:42.556Z,99205.50
2023-04-08T15:58:10.823Z,99202.53
2023-04-08T16:00:43.970Z,99205.31
2023-04-08T16:03:15.869Z,99195.34
2023-04-08T16:05:45.157Z,99201.75
2023-04-08T16:08:20.463Z,99200.13
2023-04-08T16:11:14.385Z,99199.72
2023-04-08T16:14:01.884Z,99211.81
2023-04-08T16:16:30.938Z,99213.59
2023-04-08T16:19:00.173Z,99214.03
2023-04-08T16:21:29.017Z,99216.09
2023-04-08T16:23:57.487Z,99218.00
2023-04-08T16:26:28.729Z,99215.25
2023-04-08T16:28:56.808Z,99228.75
2023-04-08T16:31:27.000Z,99226.75
2023-04-08T16:33:58.659Z,99223.44
2023-04-08T16:36:34.832Z,99229.38
2023-04-08T16:39:14.253Z,99231.09
2023-04-08T16:41:46.463Z,99232.25
2023-04-08T16:44:16.733Z,99230.84
2023-04-08T16:46:44.600Z,99231.97
2023-04-08T16:49:14.518Z,99239.72
2023-04-08T16:51:43.423Z,99245.53
2023-04-08T16:54:11.258Z,99250.31
2023-04-08T16:56:44.283Z,99252.06
2023-04-08T16:59:14.083Z,99251.81
2023-04-08T17:01:42.269Z,99251.41
2023-04-08T17:04:10.755Z,99247.84
2023-04-08T17:06:41.234Z,99246.31
2023-04-08T17:09:09.497Z,99252.63
2023-04-08T17:11:37.794Z,99257.03
2023-04-08T17:14:05.774Z,99253.72
2023-04-08T17:16:35.117Z,99256.97
2023-04-08T17:19:02.986Z,99255.88
2023-04-08T17:21:31.389Z,99262.34
2023-04-08T17:23:59.354Z,99257.59
2023-04-08T17:26:28.525Z,99273.69
2023-04-08T17:28:56.482Z,99271.50
2023-04-08T17:31:24.691Z,99275.88
2023-04-08T17:33:54.592Z,99276.31
2023-04-08T17:36:22.769Z,99278.59
2023-04-08T17:38:50.950Z,99284.31
2023-04-08T17:41:38.229Z,99284.44
2023-04-08T17:44:08.244Z,99291.81
2023-04-08T17:46:37.555Z,99288.69
2023-04-08T17:49:07.031Z,99291.88
2023-04-08T17:51:35.704Z,99286.22
2023-04-08T17:54:05.259Z,99289.88
2023-04-08T17:56:34.395Z,99286.94
2023-04-08T17:59:02.893Z,99293.13
2023-04-08T18:01:45.463Z,99296.22
2023-04-08T18:04:17.139Z,99295.31
2023-04-08T18:06:45.399Z,99293.75
2023-04-08T18:09:13.358Z,99292.22
2023-04-08T18:11:41.443Z,99292.22
2023-04-08T18:14:12.572Z,99306.69
2023-04-08T18:16:40.609Z,99307.84
2023-04-08T18:19:08.731Z,99306.44
2023-04-08T18:21:38.299Z,99317.38
2023-04-08T18:24:08.038Z,99315.56
2023-04-08T18:26:37.191Z,99325.53
2023-04-08T18:29:05.390Z,99320.94
2023-04-08T18:31:34.104Z,99321.13
2023-04-08T18:34:02.295Z,99332.44
2023-04-08T18:36:30.472Z,99333.97
2023-04-08T18:39:00.456Z,99334.88
2023-04-08T18:41:29.118Z,99339.19
2023-04-08T18:43:58.145Z,99337.94
2023-04-08T18:46:29.063Z,99344.16
2023-04-08T18:48:57.328Z,99351.13
2023-04-08T18:51:26.680Z,99344.47
2023-04-08T18:53:54.765Z,99348.16
2023-04-08T18:56:24.059Z,99352.38
2023-04-08T18:58:55.151Z,99350.16
2023-04-08T19:01:23.213Z,99355.94
2023-04-08T19:03:51.981Z,99359.97
2023-04-08T19:06:22.487Z,99359.22
2023-04-08T19:08:50.497Z,99356.34
2023-04-08T19:11:18.741Z,99362.19
2023-04-08T19:13:48.685Z,99371.03
2023-04-08T19:16:16.773Z,99355.19
2023-04-08T19:18:45.346Z,99369.03
2023-04-08T19:21:13.825Z,99363.84
2023-04-08T19:23:42.056Z,99371.22
2023-04-08T19:26:10.183Z,99369.22
2023-04-08T19:28:38.075Z,99372.81
2023-04-08T19:31:16.018Z,99372.28
2023-04-08T19:33:44.489Z,99367.53
2023-04-08T19:36:12.563Z,99379.16
2023-04-08T19:38:40.382Z,99377.25
2023-04-08T19:41:08.436Z,99376.75
2023-04-08T19:43:36.381Z,99384.97
2023-04-08T19:46:04.697Z,99387.22
2023-04-08T19:48:34.823Z,99392.34
2023-04-08T19:51:03.662Z,99389.63
2023-04-08T19:53:31.843Z,99385.16
2023-04-08T19:56:01.372Z,99381.69
2023-04-08T19:58:29.776Z,99386.66
2023-04-08T20:00:58.024Z,99384.91
2023-04-08T20:03:26.454Z,99390.38
2023-04-08T20:05:55.932Z,99384.63
2023-04-08T20:08:23.758Z,99387.75
2023-04-08T20:10:51.621Z,99389.59
2023-04-08T20:13:19.435Z,99393.00
2023-04-08T20:15:47.745Z,99382.81
2023-04-08T20:18:16.369Z,99390.19
2023-04-08T20:20:44.291Z,99391.78
2023-04-08T20:23:13.692Z,99397.91
2023-04-08T20:25:41.582Z,99393.00
2023-04-08T20:28:09.755Z,99393.97
2023-04-08T20:30:38.000Z,99392.25
2023-04-08T20:33:06.025Z,99388.31
2023-04-08T20:35:33.922Z,99383.97
2023-04-08T20:38:02.520Z,99399.81
2023-04-08T20:40:31.753Z,99391.34
2023-04-08T20:42:59.585Z,99400.94
2023-04-08T20:45:27.367Z,99399.06
2023-04-08T20:47:57.576Z,99395.09
2023-04-08T20:50:27.824Z,99389.81
2023-04-08T20:52:55.640Z,99394.06
2023-04-08T20:55:23.478Z,99396.59
2023-04-08T20:57:52.695Z,99386.78
2023-04-08T21:00:20.639Z,99391.88
2023-04-08T21:02:49.327Z,99400.34
2023-04-08T21:05:17.229Z,99400.00
2023-04-08T21:07:45.175Z,99402.81
2023-04-08T21:10:14.187Z,99399.84
2023-04-08T21:12:42.095Z,99406.94
2023-04-08T21:15:12.144Z,99402.81
2023-04-08T21:17:40.027Z,99394.78
2023-04-08T21:20:09.190Z,99398.81
2023-04-08T21:22:37.013Z,99401.94
2023-04-08T21:25:05.555Z,99395.00
2023-04-08T21:27:33.402Z,99406.75
2023-04-08T21:30:01.220Z,99396.09
2023-04-08T21:32:30.665Z,99401.81
2023-04-08T21:34:58.686Z,99396.63
2023-04-08T21:37:26.574Z,99396.16
2023-04-08T21:39:54.471Z,99399.38
2023-04-08T21:42:22.991Z,99397.19
2023-04-08T21:44:51.010Z,99392.69
2023-04-08T21:47:18.992Z,99397.56
2023-04-08T21:49:48.588Z,99390.22
2023-04-08T21:52:16.458Z,99392.78
2023-04-08T21:54:45.295Z,99390.16
2023-04-08T21:57:13.180Z,99395.84
2023-04-08T21:59:41.070Z,99392.44
2023-04-08T22:02:11.159Z,99396.00
2023-04-08T22:04:39.488Z,99392.00
2023-04-08T22:07:08.776Z,99399.56
2023-04-08T22:09:36.696Z,99404.03
2023-04-08T22:12:04.945Z,99395.78
2023-04-08T22:14:32.838Z,99389.38
2023-04-08T22:17:00.786Z,99399.09
2023-04-08T22:19:28.619Z,99396.53
2023-04-08T22:21:56.529Z,99399.25
2023-04-08T22:24:27.631Z,99397.91
2023-04-08T22:26:56.038Z,99387.31
2023-04-08T22:29:24.004Z,99379.69
2023-04-08T22:31:52.636Z,99399.91
2023-04-08T22:34:20.509Z,99395.41
2023-04-08T22:36:48.465Z,99385.69
2023-04-08T22:39:16.298Z,99391.09
2023-04-08T22:41:46.731Z,99393.59
2023-04-08T22:44:14.603Z,99388.38
2023-04-08T22:46:42.711Z,99394.34
2023-04-08T22:49:10.824Z,99392.72
2023-04-08T22:51:38.651Z,99388.91
2023-04-08T22:54:06.745Z,99396.28
2023-04-08T22:56:34.537Z,99387.31
2023-04-08T22:59:03.816Z,99397.00
2023-04-08T23:01:31.852Z,99393.69
2023-04-08T23:03:59.772Z,99389.94
2023-04-08T23:06:28.987Z,99390.16
2023-04-08T23:08:56.845Z,99391.06
2023-04-08T23:11:24.704Z,99380.34
2023-04-08T23:13:53.025Z,99378.63
2023-04-08T23:16:22.570Z,99382.63
2023-04-08T23:18:50.972Z,99385.47
2023-04-08T23:21:20.304Z,99389.84
2023-04-08T23:23:48.943Z,99390.28
2023-04-08T23:26:20.883Z,99389.03
2023-04-08T23:28:49.126Z,99383.69
2023-04-08T23:31:17.237Z,99389.94
2023-04-08T23:33:48.877Z,99385.66
2023-04-08T23:36:16.812Z,99385.59
2023-04-08T23:38:44.774Z,99385.03
2023-04-08T23:41:12.588Z,99389.38
2023-04-08T23:43:40.445Z,99389.38
2023-04-08T23:46:08.691Z,99386.06
2023-04-08T23:48:38.826Z,99384.56
2023-04-08T23:51:08.224Z,99387.63
2023-04-08T23:53:36.076Z,99386.19
2023-04-08T23:56:06.573Z,99388.28
2023-04-08T23:58:34.936Z,99386.13
